createdAt,value
2019-05-02T00:01:23.892Z,6.06
2019-05-02T00:03:52.568Z,6.00
2019-05-02T00:06:21.608Z,5.92
2019-05-02T00:08:50.415Z,5.89
2019-05-02T00:11:19.568Z,5.84
2019-05-02T00:13:48.204Z,5.79
2019-05-02T00:16:16.892Z,5.74
2019-05-02T00:18:45.534Z,5.70
2019-05-02T00:21:14.113Z,5.66
2019-05-02T00:23:42.792Z,5.62
2019-05-02T00:26:12.032Z,5.58
2019-05-02T00:28:43.019Z,5.53
2019-05-02T00:31:11.538Z,5.49
2019-05-02T00:33:41.417Z,5.44
2019-05-02T00:36:09.915Z,5.39
2019-05-02T00:38:39.882Z,5.34
2019-05-02T00:41:08.713Z,5.30
2019-05-02T00:43:37.280Z,5.27
2019-05-02T00:46:05.858Z,5.23
2019-05-02T00:48:42.019Z,5.20
2019-05-02T00:51:10.600Z,5.15
2019-05-02T00:53:39.272Z,5.12
2019-05-02T00:56:09.101Z,5.09
2019-05-02T00:58:38.257Z,5.05
2019-05-02T01:01:08.673Z,5.02
2019-05-02T01:03:38.890Z,4.99
2019-05-02T01:06:13.979Z,4.96
2019-05-02T01:08:37.991Z,4.93
2019-05-02T01:11:06.559Z,4.90
2019-05-02T01:13:35.158Z,4.87
2019-05-02T01:16:03.736Z,4.85
2019-05-02T01:18:32.237Z,4.84
2019-05-02T01:21:02.742Z,4.82
2019-05-02T01:23:31.107Z,4.80
2019-05-02T01:25:59.687Z,4.78
2019-05-02T01:28:49.329Z,4.76
2019-05-02T01:31:22.909Z,4.75
2019-05-02T01:33:56.068Z,4.73
2019-05-02T01:36:26.307Z,4.71
2019-05-02T01:38:54.877Z,4.69
2019-05-02T01:41:23.959Z,4.68
2019-05-02T01:43:54.983Z,4.66
2019-05-02T01:46:24.273Z,4.64
2019-05-02T01:48:52.967Z,4.63
2019-05-02T01:51:21.542Z,4.62
2019-05-02T01:53:50.245Z,4.60
2019-05-02T01:56:18.820Z,4.58
2019-05-02T01:58:47.391Z,4.58
2019-05-02T02:01:20.898Z,4.56
2019-05-02T02:03:47.032Z,4.56
2019-05-02T02:06:15.618Z,4.55
2019-05-02T02:08:44.194Z,4.53
2019-05-02T02:11:12.765Z,4.53
2019-05-02T02:13:41.337Z,4.52
2019-05-02T02:16:09.906Z,4.51
2019-05-02T02:18:40.121Z,4.50
2019-05-02T02:21:25.648Z,4.52
2019-05-02T02:24:03.846Z,4.56
2019-05-02T02:26:32.494Z,4.61
2019-05-02T02:29:03.011Z,4.68
2019-05-02T02:31:31.362Z,4.78
2019-05-02T02:33:59.867Z,4.90
2019-05-02T02:36:34.556Z,5.02
2019-05-02T02:38:58.743Z,5.15
2019-05-02T02:41:27.316Z,5.31
2019-05-02T02:44:13.512Z,5.46
2019-05-02T02:46:46.067Z,5.62
2019-05-02T02:49:21.435Z,5.75
2019-05-02T02:51:44.413Z,5.86
2019-05-02T02:54:12.987Z,5.98
2019-05-02T02:56:42.677Z,6.07
2019-05-02T02:59:11.723Z,6.15
2019-05-02T03:01:40.341Z,6.22
2019-05-02T03:04:11.762Z,6.28
2019-05-02T03:06:44.967Z,6.34
2019-05-02T03:09:09.534Z,6.38
2019-05-02T03:11:39.748Z,6.41
2019-05-02T03:14:12.697Z,6.44
2019-05-02T03:16:47.092Z,6.48
2019-05-02T03:19:14.604Z,6.53
2019-05-02T03:22:00.850Z,6.55
2019-05-02T03:24:25.733Z,6.57
2019-05-02T03:26:55.804Z,6.58
2019-05-02T03:29:25.511Z,6.60
2019-05-02T03:32:11.528Z,6.61
2019-05-02T03:34:24.590Z,6.64
2019-05-02T03:36:53.223Z,6.64
2019-05-02T03:39:22.657Z,6.67
2019-05-02T03:41:55.398Z,6.69
2019-05-02T03:44:25.858Z,6.70
2019-05-02T03:46:54.289Z,6.72
2019-05-02T03:49:22.692Z,6.72
2019-05-02T03:51:56.149Z,6.74
2019-05-02T03:54:21.622Z,6.76
2019-05-02T03:56:51.230Z,6.77
2019-05-02T03:59:20.239Z,6.77
2019-05-02T04:01:49.315Z,6.77
2019-05-02T04:04:20.704Z,6.78
2019-05-02T04:06:48.538Z,6.77
2019-05-02T04:09:40.027Z,6.76
2019-05-02T04:12:18.616Z,6.72
2019-05-02T04:14:39.613Z,6.65
2019-05-02T04:17:10.374Z,6.59
2019-05-02T04:19:39.690Z,6.52
2019-05-02T04:22:11.755Z,6.45
2019-05-02T04:24:39.521Z,6.40
2019-05-02T04:27:08.232Z,6.37
2019-05-02T04:29:37.303Z,6.33
2019-05-02T04:32:11.574Z,6.30
2019-05-02T04:34:36.214Z,6.28
2019-05-02T04:37:04.824Z,6.25
2019-05-02T04:39:33.462Z,6.26
2019-05-02T04:42:05.184Z,6.24
2019-05-02T04:44:40.978Z,6.23
2019-05-02T04:47:10.942Z,6.24
2019-05-02T04:49:35.760Z,6.26
2019-05-02T04:52:07.920Z,6.31
2019-05-02T04:54:33.621Z,6.37
2019-05-02T04:57:02.762Z,6.43
2019-05-02T04:59:33.348Z,6.49
2019-05-02T05:02:01.880Z,6.56
2019-05-02T05:04:33.373Z,6.60
2019-05-02T05:07:01.459Z,6.63
2019-05-02T05:09:30.173Z,6.72
2019-05-02T05:12:02.367Z,6.79
2019-05-02T05:14:31.462Z,6.89
2019-05-02T05:16:59.359Z,7.00
2019-05-02T05:19:32.471Z,7.12
2019-05-02T05:22:04.429Z,7.25
2019-05-02T05:24:32.968Z,7.38
2019-05-02T05:27:00.414Z,7.51
2019-05-02T05:29:29.224Z,7.61
2019-05-02T05:32:05.438Z,7.72
2019-05-02T05:34:32.426Z,7.84
2019-05-02T05:36:58.548Z,7.91
2019-05-02T05:39:28.201Z,8.01
2019-05-02T05:41:57.842Z,8.11
2019-05-02T05:44:28.672Z,8.18
2019-05-02T05:46:58.226Z,8.22
2019-05-02T05:49:28.234Z,8.25
2019-05-02T05:52:00.642Z,8.30
2019-05-02T05:54:28.265Z,8.37
2019-05-02T05:56:57.475Z,8.45
2019-05-02T05:59:29.516Z,8.52
2019-05-02T06:01:57.934Z,8.59
2019-05-02T06:04:32.624Z,8.68
2019-05-02T06:06:59.402Z,8.78
2019-05-02T06:09:31.095Z,8.87
2019-05-02T06:11:57.623Z,8.97
2019-05-02T06:14:26.486Z,9.10
2019-05-02T06:16:55.235Z,9.23
2019-05-02T06:19:23.836Z,9.35
2019-05-02T06:21:52.496Z,9.44
2019-05-02T06:24:21.095Z,9.52
2019-05-02T06:26:51.728Z,9.59
2019-05-02T06:29:20.916Z,9.62
2019-05-02T06:31:49.835Z,9.68
2019-05-02T06:34:18.436Z,9.69
2019-05-02T06:36:47.118Z,9.68
2019-05-02T06:39:15.757Z,9.65
2019-05-02T06:41:44.353Z,9.68
2019-05-02T06:44:13.131Z,9.72
2019-05-02T06:46:41.774Z,9.73
2019-05-02T06:49:10.416Z,9.70
2019-05-02T06:51:39.093Z,9.68
2019-05-02T06:54:07.674Z,9.69
2019-05-02T06:56:36.236Z,9.70
2019-05-02T06:59:04.908Z,9.76
2019-05-02T07:01:33.755Z,9.83
2019-05-02T07:04:04.144Z,9.89
2019-05-02T07:06:42.141Z,9.95
2019-05-02T07:09:04.262Z,9.97
2019-05-02T07:11:38.190Z,10.01
2019-05-02T07:14:12.854Z,10.04
2019-05-02T07:16:38.952Z,10.12
2019-05-02T07:19:27.546Z,10.16
2019-05-02T07:21:58.404Z,10.18
2019-05-02T07:24:30.512Z,10.23
2019-05-02T07:26:58.085Z,10.31
2019-05-02T07:29:26.805Z,10.43
2019-05-02T07:31:55.487Z,10.60
2019-05-02T07:34:24.099Z,10.78
2019-05-02T07:36:52.778Z,10.94
2019-05-02T07:39:21.585Z,11.03
2019-05-02T07:41:50.230Z,11.16
2019-05-02T07:44:18.847Z,11.40
2019-05-02T07:46:51.992Z,11.82
2019-05-02T07:49:20.647Z,12.16
2019-05-02T07:51:52.383Z,12.41
2019-05-02T07:54:19.439Z,12.61
2019-05-02T07:56:53.310Z,12.90
2019-05-02T07:59:23.477Z,13.18
2019-05-02T08:01:49.984Z,13.15
2019-05-02T08:04:19.493Z,13.39
2019-05-02T08:06:48.098Z,13.55
2019-05-02T08:09:16.669Z,13.68
2019-05-02T08:11:45.437Z,13.92
2019-05-02T08:14:14.117Z,14.23
2019-05-02T08:16:42.750Z,14.36
2019-05-02T08:19:11.372Z,14.35
2019-05-02T08:21:39.955Z,14.31
2019-05-02T08:24:08.535Z,14.13
2019-05-02T08:26:38.753Z,14.09
2019-05-02T08:29:09.000Z,14.09
2019-05-02T08:31:37.611Z,14.18
2019-05-02T08:34:14.739Z,14.34
2019-05-02T08:36:36.692Z,14.39
2019-05-02T08:39:06.934Z,14.23
2019-05-02T08:41:35.647Z,14.31
2019-05-02T08:44:04.423Z,14.47
2019-05-02T08:46:33.053Z,14.84
2019-05-02T08:49:01.630Z,15.51
2019-05-02T08:51:30.342Z,16.10
2019-05-02T08:53:58.918Z,16.45
2019-05-02T08:56:27.527Z,16.46
2019-05-02T08:58:56.184Z,16.42
2019-05-02T09:01:34.842Z,16.24
2019-05-02T09:03:56.921Z,16.33
2019-05-02T09:06:25.436Z,16.56
2019-05-02T09:08:54.059Z,16.26
2019-05-02T09:11:22.654Z,16.24
2019-05-02T09:13:52.628Z,16.44
2019-05-02T09:16:28.337Z,16.69
2019-05-02T09:18:54.182Z,17.10
2019-05-02T09:21:26.609Z,17.19
2019-05-02T09:23:52.630Z,17.37
2019-05-02T09:26:33.288Z,17.41
2019-05-02T09:28:51.849Z,17.46
2019-05-02T09:31:22.699Z,17.67
2019-05-02T09:33:52.043Z,17.91
2019-05-02T09:36:22.650Z,17.90
2019-05-02T09:38:53.955Z,17.98
2019-05-02T09:41:22.235Z,18.19
2019-05-02T09:43:52.370Z,18.55
2019-05-02T09:46:21.729Z,18.60
2019-05-02T09:48:51.969Z,18.55
2019-05-02T09:51:21.633Z,18.57
2019-05-02T09:53:52.286Z,18.71
2019-05-02T09:56:21.985Z,18.76
2019-05-02T09:58:55.331Z,18.80
2019-05-02T10:01:25.694Z,18.95
2019-05-02T10:03:54.338Z,19.06
2019-05-02T10:06:23.160Z,19.38
2019-05-02T10:08:52.186Z,19.52
2019-05-02T10:11:22.466Z,19.54
2019-05-02T10:13:51.930Z,19.61
2019-05-02T10:16:23.460Z,19.52
2019-05-02T10:18:52.452Z,19.61
2019-05-02T10:21:22.833Z,19.79
2019-05-02T10:23:59.038Z,20.05
2019-05-02T10:26:24.576Z,20.10
2019-05-02T10:28:53.369Z,20.28
2019-05-02T10:31:22.594Z,20.56
2019-05-02T10:33:52.924Z,20.73
2019-05-02T10:36:23.898Z,20.76
2019-05-02T10:38:54.888Z,20.78
2019-05-02T10:41:22.510Z,20.74
2019-05-02T10:43:55.356Z,20.78
2019-05-02T10:46:27.778Z,20.71
2019-05-02T10:48:57.903Z,20.89
2019-05-02T10:51:28.114Z,21.15
2019-05-02T10:53:56.809Z,21.11
2019-05-02T10:56:25.357Z,21.13
2019-05-02T10:58:53.950Z,20.99
2019-05-02T11:01:23.887Z,20.83
2019-05-02T11:03:54.118Z,20.38
2019-05-02T11:06:22.784Z,19.83
2019-05-02T11:08:52.445Z,19.44
2019-05-02T11:11:21.997Z,19.55
2019-05-02T11:14:12.016Z,19.65
2019-05-02T11:16:48.369Z,19.46
2019-05-02T11:19:24.635Z,19.53
2019-05-02T11:21:58.660Z,19.58
2019-05-02T11:24:23.620Z,19.87
2019-05-02T11:26:52.880Z,20.03
2019-05-02T11:29:22.758Z,19.74
2019-05-02T11:31:52.208Z,19.73
2019-05-02T11:34:22.119Z,19.97
2019-05-02T11:36:52.726Z,19.79
2019-05-02T11:39:31.558Z,19.83
2019-05-02T11:41:52.754Z,19.86
2019-05-02T11:44:22.625Z,20.09
2019-05-02T11:46:52.320Z,20.20
2019-05-02T11:49:22.805Z,20.00
2019-05-02T11:51:52.707Z,19.99
2019-05-02T11:54:22.665Z,20.11
2019-05-02T11:56:53.459Z,20.27
2019-05-02T11:59:27.722Z,20.18
2019-05-02T12:02:00.225Z,20.20
2019-05-02T12:04:29.457Z,20.38
2019-05-02T12:07:01.530Z,20.46
2019-05-02T12:09:28.572Z,20.47
2019-05-02T12:11:57.211Z,20.33
2019-05-02T12:14:27.545Z,20.15
2019-05-02T12:16:56.118Z,20.16
2019-05-02T12:19:24.793Z,20.22
2019-05-02T12:21:57.263Z,20.32
2019-05-02T12:24:25.885Z,20.26
2019-05-02T12:26:54.720Z,20.10
2019-05-02T12:29:23.326Z,19.88
2019-05-02T12:31:56.189Z,19.84
2019-05-02T12:34:22.320Z,20.04
2019-05-02T12:36:52.346Z,20.17
2019-05-02T12:39:22.131Z,20.09
2019-05-02T12:41:53.322Z,20.05
2019-05-02T12:44:22.323Z,19.75
2019-05-02T12:46:51.819Z,19.59
2019-05-02T12:49:25.282Z,19.56
2019-05-02T12:51:52.467Z,19.32
2019-05-02T12:54:21.968Z,18.98
2019-05-02T12:56:52.620Z,18.71
2019-05-02T12:59:22.521Z,18.52
2019-05-02T13:01:51.910Z,18.47
2019-05-02T13:04:22.811Z,18.73
2019-05-02T13:06:53.037Z,19.19
2019-05-02T13:09:23.405Z,19.55
2019-05-02T13:12:02.945Z,19.86
2019-05-02T13:14:32.151Z,20.00
2019-05-02T13:17:05.098Z,19.93
2019-05-02T13:19:40.204Z,19.98
2019-05-02T13:22:03.376Z,20.07
2019-05-02T13:24:39.357Z,20.00
2019-05-02T13:27:09.973Z,19.88
2019-05-02T13:29:38.786Z,19.75
2019-05-02T13:32:18.690Z,19.78
2019-05-02T13:34:54.169Z,19.62
2019-05-02T13:37:22.585Z,19.36
2019-05-02T13:39:53.178Z,19.01
2019-05-02T13:42:22.069Z,18.73
2019-05-02T13:45:08.969Z,18.56
2019-05-02T13:47:37.685Z,18.63
2019-05-02T13:50:08.326Z,18.87
2019-05-02T13:52:37.177Z,18.84
2019-05-02T13:55:11.816Z,18.72
2019-05-02T13:57:42.799Z,18.62
2019-05-02T14:00:12.742Z,18.16
2019-05-02T14:02:43.010Z,18.04
2019-05-02T14:05:13.930Z,17.84
2019-05-02T14:07:48.169Z,17.61
2019-05-02T14:10:17.099Z,17.46
2019-05-02T14:12:47.305Z,17.26
2019-05-02T14:15:18.704Z,17.07
2019-05-02T14:17:47.345Z,16.86
2019-05-02T14:20:22.382Z,16.68
2019-05-02T14:22:52.542Z,16.53
2019-05-02T14:25:22.360Z,16.41
2019-05-02T14:27:55.306Z,16.28
2019-05-02T14:30:36.057Z,16.11
2019-05-02T14:32:53.600Z,15.99
2019-05-02T14:35:28.399Z,15.84
2019-05-02T14:38:09.533Z,15.65
2019-05-02T14:40:43.632Z,15.35
2019-05-02T14:43:14.065Z,15.22
2019-05-02T14:45:43.916Z,14.99
2019-05-02T14:48:21.091Z,14.78
2019-05-02T14:50:45.845Z,14.63
2019-05-02T14:53:16.899Z,14.48
2019-05-02T14:55:47.462Z,14.36
2019-05-02T14:58:16.005Z,14.16
2019-05-02T15:00:48.090Z,14.03
2019-05-02T15:03:19.122Z,13.94
2019-05-02T15:05:46.893Z,13.84
2019-05-02T15:08:15.609Z,13.69
2019-05-02T15:10:52.403Z,13.50
2019-05-02T15:13:14.538Z,13.36
2019-05-02T15:15:43.587Z,13.29
2019-05-02T15:18:17.243Z,13.24
2019-05-02T15:20:42.612Z,13.21
2019-05-02T15:23:14.354Z,13.17
2019-05-02T15:25:42.359Z,13.17
2019-05-02T15:28:13.107Z,13.16
2019-05-02T15:30:47.858Z,13.17
2019-05-02T15:33:25.609Z,13.16
2019-05-02T15:35:57.255Z,13.21
2019-05-02T15:38:28.040Z,13.28
2019-05-02T15:40:59.346Z,13.34
2019-05-02T15:43:25.642Z,13.38
2019-05-02T15:45:54.249Z,13.43
2019-05-02T15:48:27.400Z,13.49
2019-05-02T15:50:55.322Z,13.56
2019-05-02T15:53:25.122Z,13.62
2019-05-02T15:55:53.793Z,13.63
2019-05-02T15:58:26.112Z,13.61
2019-05-02T16:01:01.680Z,13.52
2019-05-02T16:03:48.773Z,13.41
2019-05-02T16:06:21.871Z,13.29
2019-05-02T16:08:47.860Z,13.19
2019-05-02T16:11:19.348Z,13.08
2019-05-02T16:13:52.375Z,13.00
2019-05-02T16:16:21.978Z,12.90
2019-05-02T16:18:52.354Z,12.85
2019-05-02T16:21:30.109Z,12.80
2019-05-02T16:24:16.539Z,12.77
2019-05-02T16:26:46.966Z,12.75
2019-05-02T16:29:23.294Z,12.67
2019-05-02T16:31:48.229Z,12.64
2019-05-02T16:34:16.810Z,12.60
2019-05-02T16:36:45.426Z,12.55
2019-05-02T16:39:15.381Z,12.46
2019-05-02T16:41:49.089Z,12.40
2019-05-02T16:44:14.574Z,12.37
2019-05-02T16:46:43.865Z,12.34
2019-05-02T16:49:15.682Z,12.33
2019-05-02T16:51:43.227Z,12.30
2019-05-02T16:54:12.772Z,12.26
2019-05-02T16:56:44.857Z,12.24
2019-05-02T16:59:12.657Z,12.21
2019-05-02T17:01:42.534Z,12.21
2019-05-02T17:04:12.928Z,12.19
2019-05-02T17:06:42.612Z,12.15
2019-05-02T17:09:33.951Z,12.12
2019-05-02T17:12:02.030Z,12.09
2019-05-02T17:14:31.740Z,12.03
2019-05-02T17:17:01.510Z,12.01
2019-05-02T17:19:31.389Z,11.99
2019-05-02T17:22:02.575Z,11.99
2019-05-02T17:24:32.265Z,12.00
2019-05-02T17:27:02.571Z,11.98
2019-05-02T17:29:31.732Z,11.96
2019-05-02T17:32:02.188Z,11.93
2019-05-02T17:34:34.810Z,11.90
2019-05-02T17:37:06.328Z,11.88
2019-05-02T17:39:31.585Z,11.85
2019-05-02T17:42:00.950Z,11.81
2019-05-02T17:44:30.519Z,11.79
2019-05-02T17:47:01.681Z,11.76
2019-05-02T17:49:31.869Z,11.73
2019-05-02T17:52:11.271Z,11.68
2019-05-02T17:54:42.203Z,11.64
2019-05-02T17:57:11.843Z,11.61
2019-05-02T17:59:42.187Z,11.59
2019-05-02T18:02:12.246Z,11.58
2019-05-02T18:04:41.956Z,11.57
2019-05-02T18:07:11.664Z,11.54
2019-05-02T18:09:41.851Z,11.55
2019-05-02T18:12:12.681Z,11.55
2019-05-02T18:14:42.111Z,11.55
2019-05-02T18:17:12.600Z,11.55
2019-05-02T18:19:42.533Z,11.56
2019-05-02T18:22:23.495Z,11.56
2019-05-02T18:24:46.134Z,11.55
2019-05-02T18:27:12.926Z,11.54
2019-05-02T18:29:45.451Z,11.54
2019-05-02T18:32:12.870Z,11.51
2019-05-02T18:34:41.870Z,11.50
2019-05-02T18:37:10.870Z,11.47
2019-05-02T18:39:44.667Z,11.46
2019-05-02T18:42:11.818Z,11.47
2019-05-02T18:44:41.935Z,11.47
2019-05-02T18:47:12.528Z,11.46
2019-05-02T18:49:41.920Z,11.46
2019-05-02T18:52:11.707Z,11.46
2019-05-02T18:54:43.954Z,11.44
2019-05-02T18:57:11.909Z,11.42
2019-05-02T18:59:42.573Z,11.38
2019-05-02T19:02:11.580Z,11.33
2019-05-02T19:04:42.383Z,11.29
2019-05-02T19:07:14.296Z,11.25
2019-05-02T19:09:50.394Z,11.24
2019-05-02T19:13:07.318Z,11.21
2019-05-02T19:15:39.654Z,11.21
2019-05-02T19:18:10.720Z,11.19
2019-05-02T19:20:51.039Z,11.17
2019-05-02T19:23:13.145Z,11.15
2019-05-02T19:25:42.326Z,11.13
2019-05-02T19:28:12.716Z,11.10
2019-05-02T19:30:42.505Z,11.10
2019-05-02T19:33:14.553Z,11.09
2019-05-02T19:35:46.896Z,11.08
2019-05-02T19:38:17.040Z,11.09
2019-05-02T19:40:45.858Z,11.08
2019-05-02T19:43:15.579Z,11.09
2019-05-02T19:45:45.722Z,11.10
2019-05-02T19:48:15.910Z,11.12
2019-05-02T19:50:44.829Z,11.14
2019-05-02T19:53:18.205Z,11.16
2019-05-02T19:55:44.463Z,11.20
2019-05-02T19:58:13.876Z,11.21
2019-05-02T20:00:46.274Z,11.21
2019-05-02T20:03:21.843Z,11.20
2019-05-02T20:05:45.165Z,11.20
2019-05-02T20:08:21.384Z,11.19
2019-05-02T20:10:49.320Z,11.19
2019-05-02T20:13:27.929Z,11.19
2019-05-02T20:16:04.396Z,11.18
2019-05-02T20:18:29.078Z,11.16
2019-05-02T20:21:23.231Z,11.12
2019-05-02T20:23:43.251Z,11.04
2019-05-02T20:26:15.457Z,10.90
2019-05-02T20:28:42.516Z,10.75
2019-05-02T20:31:12.345Z,10.58
2019-05-02T20:33:42.890Z,10.42
2019-05-02T20:36:12.392Z,10.22
2019-05-02T20:38:41.768Z,10.04
2019-05-02T20:41:12.749Z,9.89
2019-05-02T20:43:44.667Z,9.74
2019-05-02T20:46:12.245Z,9.58
2019-05-02T20:48:41.814Z,9.43
2019-05-02T20:51:12.230Z,9.30
2019-05-02T20:53:42.084Z,9.17
2019-05-02T20:56:12.389Z,9.05
2019-05-02T20:58:41.969Z,8.96
2019-05-02T21:01:12.452Z,8.86
2019-05-02T21:03:42.987Z,8.79
2019-05-02T21:06:13.259Z,8.73
2019-05-02T21:08:43.576Z,8.67
2019-05-02T21:11:12.500Z,8.60
2019-05-02T21:13:41.848Z,8.54
2019-05-02T21:16:12.427Z,8.48
2019-05-02T21:18:42.294Z,8.41
2019-05-02T21:21:12.579Z,8.36
2019-05-02T21:23:46.683Z,8.30
2019-05-02T21:26:11.831Z,8.25
2019-05-02T21:28:40.388Z,8.20
2019-05-02T21:31:09.086Z,8.14
2019-05-02T21:33:39.542Z,8.12
2019-05-02T21:36:08.807Z,8.10
2019-05-02T21:38:37.490Z,8.08
2019-05-02T21:41:08.970Z,8.05
2019-05-02T21:43:37.630Z,8.01
2019-05-02T21:46:06.292Z,7.99
2019-05-02T21:48:34.881Z,7.99
2019-05-02T21:51:05.125Z,7.98
2019-05-02T21:53:56.093Z,7.95
2019-05-02T21:56:26.519Z,7.94
2019-05-02T21:59:08.438Z,7.93
2019-05-02T22:01:56.795Z,7.96
2019-05-02T22:04:25.584Z,8.02
2019-05-02T22:06:54.149Z,8.10
2019-05-02T22:09:23.247Z,8.18
2019-05-02T22:11:52.273Z,8.26
2019-05-02T22:14:22.359Z,8.29
2019-05-02T22:16:52.990Z,8.32
2019-05-02T22:19:21.411Z,8.30
2019-05-02T22:21:52.257Z,8.29
2019-05-02T22:24:20.328Z,8.27
2019-05-02T22:26:48.880Z,8.26
2019-05-02T22:29:17.449Z,8.28
2019-05-02T22:31:46.026Z,8.35
2019-05-02T22:34:14.614Z,8.41
2019-05-02T22:36:46.005Z,8.47
2019-05-02T22:39:34.295Z,8.52
2019-05-02T22:42:04.709Z,8.56
2019-05-02T22:44:33.408Z,8.57
2019-05-02T22:47:01.996Z,8.57
2019-05-02T22:49:31.891Z,8.58
2019-05-02T22:52:00.551Z,8.57
2019-05-02T22:54:33.281Z,8.58
2019-05-02T22:56:59.439Z,8.57
2019-05-02T22:59:28.639Z,8.59
2019-05-02T23:01:58.003Z,8.60
2019-05-02T23:04:26.598Z,8.62
2019-05-02T23:06:55.162Z,8.62
2019-05-02T23:09:23.737Z,8.62
2019-05-02T23:11:52.315Z,8.64
2019-05-02T23:14:22.093Z,8.65
2019-05-02T23:16:52.829Z,8.65
2019-05-02T23:19:22.922Z,8.66
2019-05-02T23:21:52.611Z,8.66
2019-05-02T23:24:35.925Z,8.65
2019-05-02T23:26:57.929Z,8.64
2019-05-02T23:29:26.493Z,8.61
2019-05-02T23:31:55.160Z,8.60
2019-05-02T23:34:23.738Z,8.59
2019-05-02T23:36:52.430Z,8.60
2019-05-02T23:39:21.058Z,8.59
2019-05-02T23:41:49.709Z,8.58
2019-05-02T23:44:18.322Z,8.55
2019-05-02T23:46:46.895Z,8.54
2019-05-02T23:49:15.451Z,8.51
2019-05-02T23:51:46.423Z,8.51
2019-05-02T23:54:14.495Z,8.50
2019-05-02T23:56:43.345Z,8.50
2019-05-02T23:59:12.290Z,8.49
